createdAt,value
2023-02-27T00:02:19.819Z,13.90
2023-02-27T00:05:01.045Z,14.90
2023-02-27T00:07:29.090Z,16.40
2023-02-27T00:09:57.462Z,15.50
2023-02-27T00:12:25.328Z,16.05
2023-02-27T00:14:53.065Z,17.27
2023-02-27T00:17:20.871Z,16.45
2023-02-27T00:19:52.875Z,15.43
2023-02-27T00:22:20.462Z,16.48
2023-02-27T00:24:48.355Z,14.63
2023-02-27T00:27:15.974Z,15.63
2023-02-27T00:29:45.187Z,13.95
2023-02-27T00:32:16.981Z,13.85
2023-02-27T00:34:45.733Z,14.10
2023-02-27T00:37:13.431Z,14.02
2023-02-27T00:39:41.179Z,13.60
2023-02-27T00:42:08.874Z,12.23
2023-02-27T00:44:38.746Z,12.38
2023-02-27T00:47:07.893Z,13.00
2023-02-27T00:49:35.977Z,14.10
2023-02-27T00:52:04.633Z,13.38
2023-02-27T00:54:34.697Z,12.55
2023-02-27T00:57:02.938Z,12.30
2023-02-27T00:59:30.679Z,14.05
2023-02-27T01:01:58.532Z,13.48
2023-02-27T01:04:32.573Z,13.40
2023-02-27T01:07:00.333Z,12.45
2023-02-27T01:09:28.113Z,12.52
2023-02-27T01:11:55.701Z,12.48
2023-02-27T01:14:23.587Z,11.70
2023-02-27T01:16:51.511Z,13.07
2023-02-27T01:19:19.754Z,12.27
2023-02-27T01:21:47.445Z,12.98
2023-02-27T01:24:20.380Z,13.68
2023-02-27T01:26:49.238Z,13.75
2023-02-27T01:29:17.094Z,12.50
2023-02-27T01:31:44.796Z,14.00
2023-02-27T01:34:12.470Z,12.00
2023-02-27T01:36:41.823Z,13.35
2023-02-27T01:39:09.727Z,12.68
2023-02-27T01:41:37.377Z,13.70
2023-02-27T01:44:10.986Z,13.38
2023-02-27T01:46:39.592Z,14.43
2023-02-27T01:49:17.646Z,13.55
2023-02-27T01:51:47.870Z,14.80
2023-02-27T01:54:19.023Z,14.55
2023-02-27T01:56:48.308Z,14.23
2023-02-27T01:59:16.121Z,14.27
2023-02-27T02:01:43.911Z,16.35
2023-02-27T02:04:20.321Z,14.18
2023-02-27T02:06:50.787Z,12.63
2023-02-27T02:09:19.863Z,13.95
2023-02-27T02:11:48.100Z,13.32
2023-02-27T02:14:19.098Z,13.52
2023-02-27T02:16:54.885Z,13.05
2023-02-27T02:19:41.109Z,15.05
2023-02-27T02:22:27.200Z,13.73
2023-02-27T02:25:16.621Z,14.57
2023-02-27T02:27:55.259Z,14.00
2023-02-27T02:30:34.929Z,15.23
2023-02-27T02:33:26.743Z,15.73
2023-02-27T02:36:19.088Z,15.80
2023-02-27T02:38:51.287Z,14.13
2023-02-27T02:41:49.813Z,14.57
2023-02-27T02:44:24.582Z,14.00
2023-02-27T02:47:04.387Z,13.80
2023-02-27T02:49:43.834Z,13.50
2023-02-27T02:52:17.569Z,12.63
2023-02-27T02:55:00.368Z,12.50
2023-02-27T02:57:37.477Z,12.60
2023-02-27T03:00:19.566Z,12.85
2023-02-27T03:02:49.964Z,12.13
2023-02-27T03:05:24.710Z,8.18
2023-02-27T03:08:06.280Z,12.43
2023-02-27T03:10:40.962Z,12.85
2023-02-27T03:13:14.474Z,14.43
2023-02-27T03:15:48.077Z,15.02
2023-02-27T03:18:20.912Z,16.25
2023-02-27T03:23:47.340Z,13.20
2023-02-27T03:26:17.538Z,11.70
2023-02-27T03:28:59.457Z,11.45
2023-02-27T03:31:51.981Z,10.65
2023-02-27T03:34:40.443Z,8.55
2023-02-27T03:37:26.747Z,10.52
2023-02-27T03:39:57.331Z,11.65
2023-02-27T03:42:34.136Z,10.68
2023-02-27T03:45:35.889Z,10.20
2023-02-27T03:48:03.709Z,9.32
2023-02-27T03:50:34.163Z,10.70
2023-02-27T03:53:02.185Z,11.10
2023-02-27T03:55:35.190Z,12.02
2023-02-27T03:58:03.053Z,11.45
2023-02-27T04:00:30.831Z,13.15
2023-02-27T04:03:02.755Z,13.02
2023-02-27T04:05:31.922Z,14.27
2023-02-27T04:08:07.957Z,14.45
2023-02-27T04:11:02.864Z,16.08
2023-02-27T04:14:08.244Z,14.63
2023-02-27T04:17:04.511Z,12.90
2023-02-27T04:19:44.216Z,14.63
2023-02-27T04:22:21.382Z,13.10
2023-02-27T04:24:54.511Z,14.50
2023-02-27T04:27:25.476Z,14.18
2023-02-27T04:30:00.101Z,12.38
2023-02-27T04:32:38.929Z,14.73
2023-02-27T04:35:37.452Z,14.32
2023-02-27T04:38:26.163Z,14.70
2023-02-27T04:41:00.147Z,15.25
2023-02-27T04:43:28.020Z,16.73
2023-02-27T04:45:56.306Z,13.15
2023-02-27T04:48:27.518Z,14.02
2023-02-27T04:51:06.420Z,13.77
2023-02-27T04:53:39.058Z,13.80
2023-02-27T04:56:10.406Z,13.65
2023-02-27T04:58:44.627Z,13.00
2023-02-27T05:01:38.138Z,13.68
2023-02-27T05:04:05.975Z,16.10
2023-02-27T05:06:36.466Z,15.13
2023-02-27T05:09:31.402Z,14.07
2023-02-27T05:12:18.231Z,13.07
2023-02-27T05:14:50.137Z,14.82
2023-02-27T05:17:42.888Z,15.98
2023-02-27T05:20:11.481Z,13.48
2023-02-27T05:23:01.368Z,14.70
2023-02-27T05:25:45.798Z,14.63
2023-02-27T05:28:19.319Z,15.68
2023-02-27T05:30:57.760Z,14.93
2023-02-27T05:33:33.185Z,13.05
2023-02-27T05:36:21.853Z,16.85
2023-02-27T05:38:52.067Z,11.57
2023-02-27T05:41:22.855Z,15.45
2023-02-27T05:46:42.030Z,13.10
2023-02-27T05:49:20.537Z,14.18
2023-02-27T05:51:49.148Z,15.25
2023-02-27T05:54:24.926Z,26.25
2023-02-27T05:57:57.709Z,28.17
2023-02-27T06:00:31.776Z,18.35
2023-02-27T06:02:59.626Z,20.98
2023-02-27T06:05:27.549Z,23.40
2023-02-27T06:07:55.476Z,24.45
2023-02-27T06:10:24.424Z,23.58
2023-02-27T06:12:52.648Z,19.98
2023-02-27T06:15:20.601Z,18.52
2023-02-27T06:17:49.152Z,18.98
2023-02-27T06:20:17.032Z,35.72
2023-02-27T06:22:44.776Z,18.45
2023-02-27T06:25:12.499Z,19.15
2023-02-27T06:27:40.524Z,20.13
2023-02-27T06:30:08.726Z,19.95
2023-02-27T06:32:36.916Z,18.30
2023-02-27T06:35:07.130Z,15.55
2023-02-27T06:37:37.557Z,22.80
2023-02-27T06:40:06.524Z,18.60
2023-02-27T06:42:34.413Z,15.45
2023-02-27T06:45:02.075Z,14.85
2023-02-27T06:47:29.783Z,16.25
2023-02-27T06:49:58.041Z,14.32
2023-02-27T06:52:25.875Z,15.48
2023-02-27T06:54:53.652Z,14.20
2023-02-27T06:57:21.364Z,14.82
2023-02-27T06:59:49.128Z,14.23
2023-02-27T07:02:21.133Z,13.07
2023-02-27T07:04:50.825Z,12.57
2023-02-27T07:07:33.977Z,13.38
2023-02-27T07:10:06.187Z,13.27
2023-02-27T07:12:34.250Z,12.52
2023-02-27T07:15:02.455Z,12.80
2023-02-27T07:17:31.901Z,12.63
2023-02-27T07:20:00.863Z,18.05
2023-02-27T07:22:28.936Z,15.93
2023-02-27T07:24:56.723Z,16.90
2023-02-27T07:27:24.763Z,16.05
2023-02-27T07:29:53.066Z,16.73
2023-02-27T07:32:20.847Z,12.32
2023-02-27T07:34:48.739Z,12.50
2023-02-27T07:37:20.552Z,13.10
2023-02-27T07:39:48.616Z,13.88
2023-02-27T07:42:16.809Z,11.82
2023-02-27T07:44:44.678Z,12.10
2023-02-27T07:47:12.809Z,14.50
2023-02-27T07:49:40.551Z,12.25
2023-02-27T07:52:08.570Z,13.40
2023-02-27T07:54:37.749Z,12.93
2023-02-27T07:59:35.183Z,13.02
2023-02-27T08:02:03.109Z,13.32
2023-02-27T08:04:32.031Z,15.07
2023-02-27T08:07:00.792Z,14.10
2023-02-27T08:09:28.525Z,15.43
2023-02-27T08:11:58.697Z,14.32
2023-02-27T08:14:26.419Z,14.13
2023-02-27T08:16:54.671Z,14.52
2023-02-27T08:19:22.255Z,13.27
2023-02-27T08:21:50.275Z,15.20
2023-02-27T08:24:18.246Z,17.40
2023-02-27T08:26:48.035Z,16.85
2023-02-27T08:29:17.077Z,17.08
2023-02-27T08:31:45.119Z,15.93
2023-02-27T08:34:13.233Z,16.20
2023-02-27T08:36:42.750Z,15.30
2023-02-27T08:39:10.521Z,16.35
2023-02-27T08:41:39.029Z,15.38
2023-02-27T08:44:06.727Z,16.65
2023-02-27T08:46:35.425Z,16.67
2023-02-27T08:49:03.755Z,14.85
2023-02-27T08:51:31.784Z,14.75
2023-02-27T08:54:06.627Z,16.90
2023-02-27T08:56:36.705Z,16.90
2023-02-27T08:59:04.565Z,15.98
2023-02-27T09:01:34.815Z,16.52
2023-02-27T09:04:03.825Z,15.20
2023-02-27T09:06:36.354Z,16.38
2023-02-27T09:09:04.722Z,15.40
2023-02-27T09:11:33.007Z,16.67
2023-02-27T09:14:00.981Z,15.77
2023-02-27T09:16:30.235Z,17.77
2023-02-27T09:18:58.873Z,16.08
2023-02-27T09:21:26.885Z,15.85
2023-02-27T09:23:55.159Z,16.80
2023-02-27T09:26:35.691Z,16.52
2023-02-27T09:29:08.631Z,16.92
2023-02-27T09:31:38.014Z,17.55
2023-02-27T09:34:09.466Z,17.17
2023-02-27T09:36:39.057Z,17.85
2023-02-27T09:39:09.491Z,17.45
2023-02-27T09:42:01.303Z,17.55
2023-02-27T09:44:47.428Z,18.20
2023-02-27T09:47:22.599Z,19.13
2023-02-27T09:49:57.376Z,16.73
2023-02-27T09:52:25.294Z,16.50
2023-02-27T09:54:55.399Z,17.02
2023-02-27T09:57:46.734Z,20.30
2023-02-27T10:00:28.104Z,17.35
2023-02-27T10:03:16.219Z,19.60
2023-02-27T10:05:50.848Z,19.00
2023-02-27T10:08:29.055Z,19.02
2023-02-27T10:11:01.271Z,21.33
2023-02-27T10:13:51.180Z,20.60
2023-02-27T10:30:32.358Z,20.10
2023-02-27T10:33:10.462Z,19.30
2023-02-27T10:35:39.443Z,18.75
2023-02-27T10:38:18.077Z,18.95
2023-02-27T10:40:45.964Z,21.33
2023-02-27T10:43:15.987Z,20.20
2023-02-27T10:45:44.149Z,18.95
2023-02-27T10:48:15.011Z,16.45
2023-02-27T10:50:52.848Z,18.58
2023-02-27T10:53:25.257Z,18.58
2023-02-27T10:56:03.823Z,19.20
2023-02-27T10:58:35.039Z,18.52
2023-02-27T11:01:04.876Z,18.73
2023-02-27T11:03:41.092Z,19.40
2023-02-27T11:06:13.150Z,18.25
2023-02-27T11:08:41.040Z,19.27
2023-02-27T11:11:11.096Z,18.73
2023-02-27T11:13:43.414Z,20.20
2023-02-27T11:16:16.383Z,18.88
2023-02-27T11:18:50.654Z,18.27
2023-02-27T11:21:27.651Z,20.73
2023-02-27T11:24:02.480Z,20.58
2023-02-27T11:26:34.816Z,21.77
2023-02-27T11:29:20.453Z,25.58
2023-02-27T11:31:55.666Z,26.65
2023-02-27T11:34:29.351Z,49.70
2023-02-27T11:37:35.689Z,33.33
2023-02-27T11:40:09.867Z,22.83
2023-02-27T11:42:42.345Z,20.33
2023-02-27T11:46:04.168Z,22.50
2023-02-27T11:48:19.645Z,21.58
2023-02-27T11:50:57.996Z,20.92
2023-02-27T11:53:31.124Z,21.23
2023-02-27T11:56:00.056Z,21.13
2023-02-27T11:58:33.260Z,22.90
2023-02-27T12:01:03.869Z,20.98
2023-02-27T12:03:50.329Z,21.67
2023-02-27T12:06:47.570Z,19.88
2023-02-27T12:09:46.269Z,19.88
2023-02-27T12:12:56.735Z,21.85
2023-02-27T12:15:34.860Z,19.50
2023-02-27T12:18:23.393Z,23.95
2023-02-27T12:21:04.664Z,24.73
2023-02-27T12:24:02.976Z,20.77
2023-02-27T12:26:42.329Z,18.35
2023-02-27T12:29:42.539Z,19.88
2023-02-27T12:32:14.768Z,19.80
2023-02-27T12:34:54.367Z,20.08
2023-02-27T12:37:27.736Z,18.52
2023-02-27T12:39:57.082Z,18.65
2023-02-27T12:42:44.158Z,19.80
2023-02-27T12:45:28.060Z,19.42
2023-02-27T12:48:21.087Z,20.58
2023-02-27T12:51:26.732Z,17.95
2023-02-27T12:54:16.474Z,20.25
2023-02-27T12:56:44.367Z,19.85
2023-02-27T12:59:17.065Z,20.80
2023-02-27T13:01:49.105Z,24.00
2023-02-27T13:04:26.206Z,16.98
2023-02-27T13:07:25.474Z,17.80
2023-02-27T13:10:01.371Z,16.63
2023-02-27T13:12:43.670Z,18.83
2023-02-27T13:15:31.694Z,16.90
2023-02-27T13:18:25.674Z,16.92
2023-02-27T13:20:58.702Z,16.63
2023-02-27T13:23:32.330Z,16.63
2023-02-27T13:26:00.610Z,16.63
2023-02-27T13:28:29.481Z,18.58
2023-02-27T13:31:15.696Z,17.25
2023-02-27T13:34:03.008Z,17.60
2023-02-27T13:36:36.103Z,16.60
2023-02-27T13:39:08.019Z,16.90
2023-02-27T13:41:41.921Z,15.20
2023-02-27T13:44:22.251Z,16.17
2023-02-27T13:46:50.662Z,17.25
2023-02-27T13:49:29.715Z,17.08
2023-02-27T13:52:00.000Z,18.48
2023-02-27T13:54:30.510Z,13.63
2023-02-27T13:57:05.151Z,17.23
2023-02-27T13:59:37.956Z,28.77
2023-02-27T14:02:12.532Z,20.90
2023-02-27T14:05:06.983Z,20.30
2023-02-27T14:07:53.554Z,20.10
2023-02-27T14:10:23.636Z,19.67
2023-02-27T14:12:52.039Z,18.47
2023-02-27T14:15:24.302Z,18.92
2023-02-27T14:18:12.406Z,21.38
2023-02-27T14:20:43.931Z,18.50
2023-02-27T14:23:17.377Z,18.85
2023-02-27T14:25:51.111Z,20.48
2023-02-27T14:28:54.188Z,21.85
2023-02-27T14:31:33.464Z,20.58
2023-02-27T14:34:10.575Z,19.13
2023-02-27T14:36:46.831Z,22.02
2023-02-27T14:39:33.552Z,22.10
2023-02-27T14:42:40.373Z,23.15
2023-02-27T14:45:24.330Z,22.05
2023-02-27T14:47:53.437Z,17.88
2023-02-27T14:50:25.997Z,16.42
2023-02-27T14:52:54.470Z,17.38
2023-02-27T14:55:30.089Z,17.17
2023-02-27T14:58:00.437Z,18.98
2023-02-27T15:01:02.591Z,18.02
2023-02-27T15:03:50.461Z,15.55
2023-02-27T15:06:18.524Z,13.73
2023-02-27T15:08:48.773Z,14.98
2023-02-27T15:11:22.192Z,15.02
2023-02-27T15:14:04.709Z,11.93
2023-02-27T15:16:41.539Z,12.57
2023-02-27T15:23:43.161Z,10.73
2023-02-27T15:26:13.309Z,13.52
2023-02-27T15:28:43.511Z,12.48
2023-02-27T15:31:18.457Z,11.75
2023-02-27T15:33:46.338Z,11.32
2023-02-27T15:36:20.268Z,12.23
2023-02-27T15:39:08.758Z,9.75
2023-02-27T15:41:40.021Z,9.90
2023-02-27T15:44:10.848Z,10.55
2023-02-27T15:46:38.919Z,10.52
2023-02-27T15:49:07.033Z,9.65
2023-02-27T15:51:36.303Z,9.82
2023-02-27T15:54:04.380Z,10.52
2023-02-27T15:56:33.693Z,9.55
2023-02-27T15:59:03.204Z,8.90
2023-02-27T16:01:32.913Z,10.20
2023-02-27T16:04:05.801Z,9.85
2023-02-27T16:06:39.009Z,11.70
2023-02-27T16:09:20.805Z,8.80
2023-02-27T16:11:50.025Z,17.05
2023-02-27T16:14:38.614Z,13.20
2023-02-27T16:17:32.362Z,12.15
2023-02-27T16:20:02.326Z,9.20
2023-02-27T16:22:30.712Z,8.93
2023-02-27T16:25:11.528Z,12.65
2023-02-27T16:27:39.932Z,11.15
2023-02-27T16:30:10.895Z,11.40
2023-02-27T16:32:42.363Z,9.38
2023-02-27T16:35:20.999Z,11.73
2023-02-27T16:37:49.718Z,10.57
2023-02-27T16:40:23.368Z,10.63
2023-02-27T16:42:51.957Z,11.75
2023-02-27T16:45:22.015Z,12.23
2023-02-27T16:47:54.291Z,11.60
2023-02-27T16:50:23.156Z,13.98
2023-02-27T16:52:50.980Z,12.77
2023-02-27T16:55:21.877Z,12.45
2023-02-27T16:57:53.595Z,11.73
2023-02-27T17:00:25.683Z,10.02
2023-02-27T17:02:54.422Z,10.30
2023-02-27T17:05:24.397Z,11.23
2023-02-27T17:07:53.795Z,11.02
2023-02-27T17:10:22.500Z,11.02
2023-02-27T17:12:51.959Z,11.32
2023-02-27T17:15:20.127Z,12.63
2023-02-27T17:17:49.836Z,11.63
2023-02-27T17:20:18.219Z,11.45
2023-02-27T17:22:46.478Z,11.82
2023-02-27T17:25:14.425Z,11.57
2023-02-27T17:27:43.750Z,10.13
2023-02-27T17:30:12.351Z,9.90
2023-02-27T17:32:40.594Z,11.88
2023-02-27T17:35:09.089Z,16.67
2023-02-27T17:37:37.118Z,15.68
2023-02-27T17:40:06.321Z,17.63
2023-02-27T17:42:36.438Z,14.73
2023-02-27T17:45:06.778Z,14.07
2023-02-27T17:47:35.588Z,14.00
2023-02-27T17:50:04.477Z,12.68
2023-02-27T17:52:35.989Z,13.40
2023-02-27T17:55:04.394Z,12.65
2023-02-27T17:57:35.733Z,13.27
2023-02-27T18:02:36.872Z,12.38
2023-02-27T18:05:06.154Z,11.88
2023-02-27T18:07:34.935Z,11.25
2023-02-27T18:10:05.674Z,11.70
2023-02-27T18:12:33.669Z,12.00
2023-02-27T18:15:07.381Z,10.75
2023-02-27T18:17:36.017Z,9.73
2023-02-27T18:20:05.428Z,10.25
2023-02-27T18:22:34.560Z,11.18
2023-02-27T18:25:02.413Z,11.70
2023-02-27T18:27:30.381Z,8.82
2023-02-27T18:29:58.543Z,9.00
2023-02-27T18:32:26.465Z,10.30
2023-02-27T18:34:54.318Z,10.27
2023-02-27T18:37:21.981Z,9.77
2023-02-27T18:39:50.418Z,7.43
2023-02-27T18:42:18.270Z,7.70
2023-02-27T18:44:47.806Z,7.88
2023-02-27T18:47:15.550Z,9.40
2023-02-27T18:49:43.432Z,8.93
2023-02-27T18:52:11.474Z,8.90
2023-02-27T18:54:43.342Z,8.37
2023-02-27T18:57:11.525Z,7.28
2023-02-27T18:59:41.447Z,8.43
2023-02-27T19:02:16.514Z,8.75
2023-02-27T19:04:44.110Z,9.75
2023-02-27T19:07:12.203Z,7.53
2023-02-27T19:09:40.267Z,6.68
2023-02-27T19:12:10.880Z,7.90
2023-02-27T19:14:39.032Z,7.53
2023-02-27T19:17:09.515Z,6.13
2023-02-27T19:19:37.662Z,7.13
2023-02-27T19:22:05.377Z,6.18
2023-02-27T19:24:36.176Z,6.35
2023-02-27T19:27:04.188Z,5.97
2023-02-27T19:29:36.852Z,5.95
2023-02-27T19:32:08.418Z,5.15
2023-02-27T19:34:36.303Z,5.10
2023-02-27T19:37:04.312Z,5.32
2023-02-27T19:39:32.107Z,5.90
2023-02-27T19:42:00.399Z,5.07
2023-02-27T19:44:28.235Z,3.72
2023-02-27T19:46:56.970Z,4.95
2023-02-27T19:49:25.285Z,4.85
2023-02-27T19:51:53.233Z,4.80
2023-02-27T19:54:21.114Z,4.80
2023-02-27T19:56:49.133Z,4.43
2023-02-27T19:59:18.391Z,4.03
2023-02-27T20:01:46.257Z,4.57
2023-02-27T20:04:14.388Z,4.97
2023-02-27T20:06:44.570Z,5.40
2023-02-27T20:09:14.821Z,5.55
2023-02-27T20:11:44.942Z,5.50
2023-02-27T20:14:14.066Z,6.13
2023-02-27T20:16:42.074Z,6.20
2023-02-27T20:19:12.072Z,5.28
2023-02-27T20:21:41.620Z,5.60
2023-02-27T20:24:10.587Z,5.55
2023-02-27T20:26:49.684Z,5.68
2023-02-27T20:29:19.719Z,6.60
2023-02-27T20:31:48.796Z,7.00
2023-02-27T20:34:22.062Z,7.07
2023-02-27T20:36:52.542Z,6.13
2023-02-27T20:39:22.695Z,6.15
2023-02-27T20:41:50.561Z,6.10
2023-02-27T20:44:18.451Z,7.38
2023-02-27T20:46:49.299Z,6.47
2023-02-27T20:49:21.024Z,8.45
2023-02-27T20:51:48.708Z,7.53
2023-02-27T20:54:20.690Z,7.53
2023-02-27T20:56:51.979Z,8.38
2023-02-27T20:59:20.821Z,7.43
2023-02-27T21:01:52.058Z,8.77
2023-02-27T21:04:42.307Z,8.07
2023-02-27T21:07:11.848Z,8.20
2023-02-27T21:09:42.452Z,7.82
2023-02-27T21:12:10.728Z,8.75
2023-02-27T21:14:38.963Z,9.05
2023-02-27T21:17:07.108Z,8.57
2023-02-27T21:19:35.026Z,9.38
2023-02-27T21:22:02.918Z,9.50
2023-02-27T21:24:32.326Z,9.93
2023-02-27T21:27:00.499Z,9.55
2023-02-27T21:29:28.366Z,8.88
2023-02-27T21:31:57.252Z,9.82
2023-02-27T21:34:26.064Z,8.90
2023-02-27T21:36:54.267Z,9.73
2023-02-27T21:39:41.852Z,9.32
2023-02-27T21:42:09.749Z,9.40
2023-02-27T21:44:37.777Z,10.60
2023-02-27T21:47:10.353Z,9.05
2023-02-27T21:49:39.446Z,9.93
2023-02-27T21:52:07.181Z,11.68
2023-02-27T21:54:34.907Z,14.68
2023-02-27T21:57:03.438Z,16.23
2023-02-27T21:59:31.283Z,13.82
2023-02-27T22:01:59.449Z,15.07
2023-02-27T22:04:27.200Z,15.27
2023-02-27T22:06:54.929Z,15.05
2023-02-27T22:09:24.353Z,15.65
2023-02-27T22:11:52.468Z,15.40
2023-02-27T22:14:20.646Z,16.88
2023-02-27T22:16:50.380Z,16.17
2023-02-27T22:19:22.197Z,16.02
2023-02-27T22:21:50.237Z,19.58
2023-02-27T22:24:18.539Z,17.98
2023-02-27T22:26:47.989Z,19.67
2023-02-27T22:29:17.224Z,17.85
2023-02-27T22:31:45.476Z,21.60
2023-02-27T22:34:18.260Z,18.45
2023-02-27T22:36:47.211Z,19.92
2023-02-27T22:39:15.405Z,23.25
2023-02-27T22:41:43.737Z,21.98
2023-02-27T22:44:12.846Z,23.67
2023-02-27T22:46:43.212Z,22.23
2023-02-27T22:49:19.029Z,21.30
2023-02-27T22:51:50.725Z,19.23
2023-02-27T22:54:20.438Z,21.58
2023-02-27T22:56:50.368Z,20.25
2023-02-27T22:59:30.970Z,22.92
2023-02-27T23:01:59.531Z,21.50
2023-02-27T23:04:27.521Z,21.35
2023-02-27T23:06:56.596Z,23.45
2023-02-27T23:09:26.370Z,24.48
2023-02-27T23:11:55.400Z,18.98
2023-02-27T23:14:23.998Z,22.38
2023-02-27T23:16:52.167Z,22.23
2023-02-27T23:19:20.625Z,21.88
2023-02-27T23:21:55.147Z,20.30
2023-02-27T23:24:23.123Z,21.77
2023-02-27T23:26:51.686Z,20.80
2023-02-27T23:29:20.018Z,22.92
2023-02-27T23:31:48.276Z,21.23
2023-02-27T23:34:18.582Z,23.60
2023-02-27T23:36:46.732Z,20.38
2023-02-27T23:39:14.497Z,21.77
2023-02-27T23:41:42.661Z,21.27
2023-02-27T23:44:10.421Z,23.73
2023-02-27T23:46:38.340Z,23.48
2023-02-27T23:49:06.173Z,25.10
2023-02-27T23:51:34.936Z,21.85
2023-02-27T23:54:03.720Z,26.10
2023-02-27T23:56:32.426Z,24.95
2023-02-27T23:59:01.782Z,26.88
